createdAt,value
2023-04-30T00:05:25.414Z,5.4
2023-04-30T00:15:27.717Z,5
2023-04-30T00:25:29.800Z,4.9
2023-04-30T00:35:32.388Z,4.6
2023-04-30T00:45:34.424Z,4.7
2023-04-30T00:55:36.712Z,4.3
2023-04-30T01:05:38.553Z,4.3
2023-04-30T01:15:41.148Z,4.2
2023-04-30T01:25:43.744Z,4
2023-04-30T01:35:45.470Z,3.8
2023-04-30T01:45:47.728Z,3.8
2023-04-30T01:55:49.571Z,3.6
2023-04-30T02:05:52.149Z,3.7
2023-04-30T02:15:54.126Z,3.7
2023-04-30T02:25:56.542Z,3.8
2023-04-30T02:46:00.735Z,3.2
2023-04-30T02:56:02.979Z,3.2
2023-04-30T03:06:05.275Z,3.4
2023-04-30T03:16:07.621Z,3.1
2023-04-30T03:26:09.777Z,3.6
2023-04-30T03:36:12.291Z,3.5
2023-04-30T03:46:14.368Z,3.2
2023-04-30T03:56:16.726Z,3
2023-04-30T04:06:19.154Z,2.8
2023-04-30T04:16:21.442Z,2.8
2023-04-30T04:26:24.004Z,3.1
2023-04-30T04:36:25.970Z,2.9
2023-04-30T04:46:27.836Z,3.1
2023-04-30T04:56:29.543Z,3.4
2023-04-30T05:06:31.280Z,4.6
2023-04-30T05:16:33.858Z,5.3
2023-04-30T05:36:38.447Z,6.9
2023-04-30T05:46:40.815Z,7.4
2023-04-30T05:56:43.412Z,7.2
2023-04-30T06:06:45.957Z,6.9
2023-04-30T06:16:47.409Z,8.1
2023-04-30T06:26:49.532Z,8.6
2023-04-30T06:36:52.026Z,9
2023-04-30T06:46:54.356Z,9.4
2023-04-30T06:56:56.223Z,9.6
2023-04-30T07:06:58.452Z,10.2
2023-04-30T07:17:00.364Z,10.4
2023-04-30T07:27:02.930Z,11.3
2023-04-30T07:37:05.157Z,10.7
2023-04-30T07:47:07.242Z,11.2
2023-04-30T07:57:09.330Z,11.5
2023-04-30T08:07:11.257Z,12
2023-04-30T08:27:16.157Z,12.9
2023-04-30T08:37:17.849Z,12.3
2023-04-30T08:57:21.543Z,12.3
2023-04-30T09:07:23.868Z,12.8
2023-04-30T09:17:26.185Z,13.2
2023-04-30T09:27:28.081Z,13.1
2023-04-30T09:37:30.111Z,13.2
2023-04-30T09:47:31.917Z,14
2023-04-30T09:57:33.584Z,13.3
2023-04-30T10:07:36.080Z,14.7
2023-04-30T10:17:38.744Z,14.1
2023-04-30T10:27:40.568Z,13.6
2023-04-30T10:37:42.701Z,15.1
2023-04-30T10:47:44.779Z,14.8
2023-04-30T10:57:46.722Z,14.4
2023-04-30T11:07:48.500Z,15.3
2023-04-30T11:17:50.136Z,15
2023-04-30T11:27:51.934Z,15.1
2023-04-30T11:37:54.289Z,15.5
2023-04-30T11:47:56.891Z,15.2
2023-04-30T11:57:59.374Z,15.6
2023-04-30T12:08:01.310Z,15.4
2023-04-30T12:28:05.744Z,16.5
2023-04-30T12:38:07.647Z,16.2
2023-04-30T12:48:09.667Z,16
2023-04-30T12:58:11.555Z,16.5
2023-04-30T13:08:13.344Z,16
2023-04-30T13:18:16.061Z,16.3
2023-04-30T13:28:17.764Z,16.9
2023-04-30T13:38:20.302Z,16.3
2023-04-30T13:48:22.585Z,17.1
2023-04-30T13:58:24.524Z,16.5
2023-04-30T14:08:26.626Z,16.8
2023-04-30T14:18:28.376Z,16.6
2023-04-30T14:28:30.939Z,16.5
2023-04-30T14:38:33.195Z,16.7
2023-04-30T14:48:35.282Z,17
2023-04-30T14:58:37.431Z,16.2
2023-04-30T15:08:39.598Z,16.7
2023-04-30T15:18:41.685Z,17.1
2023-04-30T15:28:43.326Z,16.8
2023-04-30T15:38:45.010Z,16.8
2023-04-30T15:48:47.130Z,16.3
2023-04-30T15:58:49.303Z,16.8
2023-04-30T16:08:51.148Z,16.4
2023-04-30T16:18:53.122Z,16.7
2023-04-30T16:28:55.096Z,16.5
2023-04-30T16:38:57.555Z,16.1
2023-04-30T16:48:59.411Z,16.1
2023-04-30T17:09:03.608Z,16
2023-04-30T17:19:06.102Z,15.4
2023-04-30T17:29:08.204Z,15.1
2023-04-30T17:39:09.898Z,15.1
2023-04-30T17:49:12.020Z,14.9
2023-04-30T18:09:16.329Z,14.6
2023-04-30T18:19:18.113Z,14.4
2023-04-30T18:29:19.991Z,14
2023-04-30T18:39:22.336Z,13.8
2023-04-30T18:49:24.452Z,13.6
2023-04-30T18:59:26.609Z,13.2
2023-04-30T19:09:28.429Z,13.2
2023-04-30T19:19:30.145Z,12.9
2023-04-30T19:29:31.849Z,12.8
2023-04-30T19:39:33.774Z,12.5
2023-04-30T19:49:36.213Z,12.3
2023-04-30T20:09:40.862Z,12
2023-04-30T20:29:44.921Z,11.7
2023-04-30T21:00:12.394Z,11.2
2023-04-30T21:10:00.036Z,10.8
2023-04-30T21:20:02.641Z,10.2
2023-04-30T21:30:04.532Z,9.9
2023-04-30T21:40:07.035Z,9.9
2023-04-30T21:50:08.753Z,9.7
2023-04-30T22:00:10.969Z,9.6
2023-04-30T22:10:12.849Z,9.2
2023-04-30T22:20:14.980Z,9.2
2023-04-30T22:30:16.584Z,8.9
2023-04-30T22:40:18.402Z,8.6
2023-04-30T22:50:20.375Z,8.5
2023-04-30T23:00:22.542Z,8.2
2023-04-30T23:10:24.896Z,7.9
2023-04-30T23:20:27.194Z,7.6
2023-04-30T23:30:29.059Z,7.5
2023-04-30T23:50:33.071Z,7.1
